sensor_id;sensor_type;location;lat;lon;timestamp;P1;durP1;ratioP1;P2;durP2;ratioP2
13339;SDS011;6739;47.398;8.774;2022-07-10T00:01:39;1.93;;;1.23;;
13339;SDS011;6739;47.398;8.774;2022-07-10T00:04:07;1.70;;;1.30;;
13339;SDS011;6739;47.398;8.774;2022-07-10T00:06:36;2.40;;;1.50;;
13339;SDS011;6739;47.398;8.774;2022-07-10T00:09:06;1.93;;;1.50;;
13339;SDS011;6739;47.398;8.774;2022-07-10T00:11:33;4.10;;;1.20;;
13339;SDS011;6739;47.398;8.774;2022-07-10T00:14:01;1.77;;;1.30;;
13339;SDS011;6739;47.398;8.774;2022-07-10T00:16:29;1.40;;;1.30;;
13339;SDS011;6739;47.398;8.774;2022-07-10T00:18:56;1.20;;;1.10;;
13339;SDS011;6739;47.398;8.774;2022-07-10T00:21:24;1.53;;;1.43;;
13339;SDS011;6739;47.398;8.774;2022-07-10T00:23:53;1.73;;;1.17;;
13339;SDS011;6739;47.398;8.774;2022-07-10T00:26:20;1.40;;;1.23;;
13339;SDS011;6739;47.398;8.774;2022-07-10T00:28:48;2.40;;;1.43;;
13339;SDS011;6739;47.398;8.774;2022-07-10T00:31:15;2.50;;;1.30;;
13339;SDS011;6739;47.398;8.774;2022-07-10T00:33:43;4.17;;;1.53;;
13339;SDS011;6739;47.398;8.774;2022-07-10T00:36:10;1.47;;;1.30;;
13339;SDS011;6739;47.398;8.774;2022-07-10T00:38:37;1.30;;;1.20;;
13339;SDS011;6739;47.398;8.774;2022-07-10T00:41:06;2.20;;;1.27;;
13339;SDS011;6739;47.398;8.774;2022-07-10T00:46:16;2.23;;;1.33;;
13339;SDS011;6739;47.398;8.774;2022-07-10T00:48:45;2.50;;;1.50;;
13339;SDS011;6739;47.398;8.774;2022-07-10T00:51:13;1.30;;;1.20;;
13339;SDS011;6739;47.398;8.774;2022-07-10T00:53:40;1.20;;;1.10;;
13339;SDS011;6739;47.398;8.774;2022-07-10T00:56:10;2.73;;;1.30;;
13339;SDS011;6739;47.398;8.774;2022-07-10T00:58:38;1.60;;;1.50;;
13339;SDS011;6739;47.398;8.774;2022-07-10T01:01:06;1.17;;;1.13;;
13339;SDS011;6739;47.398;8.774;2022-07-10T01:03:34;1.60;;;1.30;;
13339;SDS011;6739;47.398;8.774;2022-07-10T01:06:02;1.20;;;1.10;;
13339;SDS011;6739;47.398;8.774;2022-07-10T01:08:30;3.07;;;1.43;;
13339;SDS011;6739;47.398;8.774;2022-07-10T01:10:57;1.50;;;1.20;;
13339;SDS011;6739;47.398;8.774;2022-07-10T01:13:26;1.20;;;1.10;;
13339;SDS011;6739;47.398;8.774;2022-07-10T01:15:53;1.70;;;1.30;;
13339;SDS011;6739;47.398;8.774;2022-07-10T01:18:21;2.27;;;1.33;;
13339;SDS011;6739;47.398;8.774;2022-07-10T01:20:52;1.67;;;1.50;;
13339;SDS011;6739;47.398;8.774;2022-07-10T01:23:19;1.60;;;1.50;;
13339;SDS011;6739;47.398;8.774;2022-07-10T01:25:47;2.07;;;1.23;;
13339;SDS011;6739;47.398;8.774;2022-07-10T01:28:15;1.60;;;1.40;;
13339;SDS011;6739;47.398;8.774;2022-07-10T01:30:43;1.70;;;1.50;;
13339;SDS011;6739;47.398;8.774;2022-07-10T01:33:10;2.10;;;1.47;;
13339;SDS011;6739;47.398;8.774;2022-07-10T01:35:38;1.93;;;1.20;;
13339;SDS011;6739;47.398;8.774;2022-07-10T01:38:07;1.40;;;1.30;;
13339;SDS011;6739;47.398;8.774;2022-07-10T01:40:34;2.93;;;1.60;;
13339;SDS011;6739;47.398;8.774;2022-07-10T01:43:02;1.03;;;1.00;;
13339;SDS011;6739;47.398;8.774;2022-07-10T01:45:29;2.27;;;1.40;;
13339;SDS011;6739;47.398;8.774;2022-07-10T01:47:57;1.50;;;1.30;;
13339;SDS011;6739;47.398;8.774;2022-07-10T01:50:24;1.67;;;1.50;;
13339;SDS011;6739;47.398;8.774;2022-07-10T01:52:52;2.83;;;1.40;;
13339;SDS011;6739;47.398;8.774;2022-07-10T01:55:20;1.60;;;1.33;;
13339;SDS011;6739;47.398;8.774;2022-07-10T01:57:48;1.77;;;1.67;;
13339;SDS011;6739;47.398;8.774;2022-07-10T02:00:15;3.27;;;1.67;;
13339;SDS011;6739;47.398;8.774;2022-07-10T02:02:43;1.50;;;1.37;;
13339;SDS011;6739;47.398;8.774;2022-07-10T02:05:31;1.57;;;1.30;;
13339;SDS011;6739;47.398;8.774;2022-07-10T02:07:57;4.23;;;1.50;;
13339;SDS011;6739;47.398;8.774;2022-07-10T02:10:26;1.97;;;1.63;;
13339;SDS011;6739;47.398;8.774;2022-07-10T02:12:54;1.70;;;1.60;;
13339;SDS011;6739;47.398;8.774;2022-07-10T02:15:22;2.23;;;1.50;;
13339;SDS011;6739;47.398;8.774;2022-07-10T02:17:49;2.20;;;1.57;;
13339;SDS011;6739;47.398;8.774;2022-07-10T02:20:17;1.73;;;1.60;;
13339;SDS011;6739;47.398;8.774;2022-07-10T02:22:44;2.37;;;1.50;;
13339;SDS011;6739;47.398;8.774;2022-07-10T02:25:12;1.63;;;1.43;;
13339;SDS011;6739;47.398;8.774;2022-07-10T02:27:41;1.83;;;1.50;;
13339;SDS011;6739;47.398;8.774;2022-07-10T02:30:09;2.33;;;1.70;;
13339;SDS011;6739;47.398;8.774;2022-07-10T02:32:37;1.60;;;1.50;;
13339;SDS011;6739;47.398;8.774;2022-07-10T02:35:04;2.27;;;1.50;;
13339;SDS011;6739;47.398;8.774;2022-07-10T02:37:32;2.07;;;1.50;;
13339;SDS011;6739;47.398;8.774;2022-07-10T02:39:59;2.60;;;1.60;;
13339;SDS011;6739;47.398;8.774;2022-07-10T02:42:27;3.37;;;1.47;;
13339;SDS011;6739;47.398;8.774;2022-07-10T02:44:56;1.40;;;1.30;;
13339;SDS011;6739;47.398;8.774;2022-07-10T02:47:23;2.67;;;1.70;;
13339;SDS011;6739;47.398;8.774;2022-07-10T02:49:51;1.93;;;1.50;;
13339;SDS011;6739;47.398;8.774;2022-07-10T02:52:18;2.00;;;1.77;;
13339;SDS011;6739;47.398;8.774;2022-07-10T02:54:46;1.83;;;1.73;;
13339;SDS011;6739;47.398;8.774;2022-07-10T02:57:13;1.80;;;1.70;;
13339;SDS011;6739;47.398;8.774;2022-07-10T02:59:41;3.60;;;1.57;;
13339;SDS011;6739;47.398;8.774;2022-07-10T03:02:09;1.60;;;1.50;;
13339;SDS011;6739;47.398;8.774;2022-07-10T03:04:37;2.10;;;1.67;;
13339;SDS011;6739;47.398;8.774;2022-07-10T03:07:04;1.50;;;1.40;;
13339;SDS011;6739;47.398;8.774;2022-07-10T03:09:32;2.03;;;1.60;;
13339;SDS011;6739;47.398;8.774;2022-07-10T03:12:00;1.80;;;1.70;;
13339;SDS011;6739;47.398;8.774;2022-07-10T03:14:27;3.53;;;2.07;;
13339;SDS011;6739;47.398;8.774;2022-07-10T03:16:55;1.67;;;1.47;;
13339;SDS011;6739;47.398;8.774;2022-07-10T03:19:23;1.60;;;1.50;;
13339;SDS011;6739;47.398;8.774;2022-07-10T03:21:51;1.70;;;1.60;;
13339;SDS011;6739;47.398;8.774;2022-07-10T03:24:18;2.20;;;1.70;;
13339;SDS011;6739;47.398;8.774;2022-07-10T03:26:46;2.17;;;1.97;;
13339;SDS011;6739;47.398;8.774;2022-07-10T03:29:13;3.87;;;2.00;;
13339;SDS011;6739;47.398;8.774;2022-07-10T03:31:41;3.40;;;2.10;;
13339;SDS011;6739;47.398;8.774;2022-07-10T03:34:09;2.60;;;1.90;;
13339;SDS011;6739;47.398;8.774;2022-07-10T03:36:37;2.67;;;1.97;;
13339;SDS011;6739;47.398;8.774;2022-07-10T03:39:05;1.80;;;1.70;;
13339;SDS011;6739;47.398;8.774;2022-07-10T03:41:33;2.27;;;1.70;;
13339;SDS011;6739;47.398;8.774;2022-07-10T03:44:01;2.80;;;1.90;;
13339;SDS011;6739;47.398;8.774;2022-07-10T03:46:28;2.33;;;1.90;;
13339;SDS011;6739;47.398;8.774;2022-07-10T03:48:56;2.50;;;2.10;;
13339;SDS011;6739;47.398;8.774;2022-07-10T03:51:23;2.47;;;1.90;;
13339;SDS011;6739;47.398;8.774;2022-07-10T03:53:52;1.80;;;1.60;;
13339;SDS011;6739;47.398;8.774;2022-07-10T03:56:20;2.17;;;2.00;;
13339;SDS011;6739;47.398;8.774;2022-07-10T03:59:05;2.00;;;1.80;;
13339;SDS011;6739;47.398;8.774;2022-07-10T04:01:32;1.90;;;1.80;;
13339;SDS011;6739;47.398;8.774;2022-07-10T04:04:00;4.17;;;1.90;;
13339;SDS011;6739;47.398;8.774;2022-07-10T04:06:28;2.13;;;1.90;;
13339;SDS011;6739;47.398;8.774;2022-07-10T04:08:57;1.80;;;1.70;;
13339;SDS011;6739;47.398;8.774;2022-07-10T04:11:24;2.77;;;2.17;;
13339;SDS011;6739;47.398;8.774;2022-07-10T04:13:52;6.60;;;2.10;;
13339;SDS011;6739;47.398;8.774;2022-07-10T04:16:19;2.20;;;1.93;;
13339;SDS011;6739;47.398;8.774;2022-07-10T04:18:47;3.93;;;2.03;;
13339;SDS011;6739;47.398;8.774;2022-07-10T04:21:15;3.60;;;2.10;;
13339;SDS011;6739;47.398;8.774;2022-07-10T04:23:42;1.70;;;1.60;;
13339;SDS011;6739;47.398;8.774;2022-07-10T04:26:11;2.27;;;2.07;;
13339;SDS011;6739;47.398;8.774;2022-07-10T04:28:38;2.50;;;2.00;;
13339;SDS011;6739;47.398;8.774;2022-07-10T04:31:06;2.27;;;2.07;;
13339;SDS011;6739;47.398;8.774;2022-07-10T04:33:34;2.30;;;2.00;;
13339;SDS011;6739;47.398;8.774;2022-07-10T04:36:01;2.10;;;1.90;;
13339;SDS011;6739;47.398;8.774;2022-07-10T04:38:29;2.70;;;1.93;;
13339;SDS011;6739;47.398;8.774;2022-07-10T04:40:57;2.77;;;2.23;;
13339;SDS011;6739;47.398;8.774;2022-07-10T04:43:26;2.30;;;1.70;;
13339;SDS011;6739;47.398;8.774;2022-07-10T04:45:53;2.97;;;2.10;;
13339;SDS011;6739;47.398;8.774;2022-07-10T04:48:21;2.63;;;2.20;;
13339;SDS011;6739;47.398;8.774;2022-07-10T04:50:48;6.57;;;2.17;;
13339;SDS011;6739;47.398;8.774;2022-07-10T04:53:16;2.00;;;1.90;;
13339;SDS011;6739;47.398;8.774;2022-07-10T04:55:43;2.20;;;1.97;;
13339;SDS011;6739;47.398;8.774;2022-07-10T04:58:11;2.23;;;1.80;;
13339;SDS011;6739;47.398;8.774;2022-07-10T05:00:40;2.83;;;1.87;;
13339;SDS011;6739;47.398;8.774;2022-07-10T05:03:07;2.37;;;1.87;;
13339;SDS011;6739;47.398;8.774;2022-07-10T05:05:34;3.77;;;1.90;;
13339;SDS011;6739;47.398;8.774;2022-07-10T05:08:02;2.20;;;1.97;;
13339;SDS011;6739;47.398;8.774;2022-07-10T05:10:30;2.40;;;1.97;;
13339;SDS011;6739;47.398;8.774;2022-07-10T05:12:57;2.43;;;2.23;;
13339;SDS011;6739;47.398;8.774;2022-07-10T05:15:25;2.57;;;2.00;;
13339;SDS011;6739;47.398;8.774;2022-07-10T05:17:53;2.17;;;2.03;;
13339;SDS011;6739;47.398;8.774;2022-07-10T05:20:21;3.23;;;1.93;;
13339;SDS011;6739;47.398;8.774;2022-07-10T05:22:48;3.57;;;1.70;;
13339;SDS011;6739;47.398;8.774;2022-07-10T05:25:16;3.47;;;2.17;;
13339;SDS011;6739;47.398;8.774;2022-07-10T05:27:43;5.27;;;2.27;;
13339;SDS011;6739;47.398;8.774;2022-07-10T05:30:11;1.57;;;1.47;;
13339;SDS011;6739;47.398;8.774;2022-07-10T05:32:42;2.53;;;1.93;;
13339;SDS011;6739;47.398;8.774;2022-07-10T05:35:11;2.30;;;2.10;;
13339;SDS011;6739;47.398;8.774;2022-07-10T05:37:38;2.30;;;2.07;;
13339;SDS011;6739;47.398;8.774;2022-07-10T05:40:06;2.47;;;2.20;;
13339;SDS011;6739;47.398;8.774;2022-07-10T05:42:34;2.30;;;2.10;;
13339;SDS011;6739;47.398;8.774;2022-07-10T05:45:02;2.30;;;2.10;;
13339;SDS011;6739;47.398;8.774;2022-07-10T05:47:29;4.33;;;2.67;;
13339;SDS011;6739;47.398;8.774;2022-07-10T05:49:58;2.17;;;1.90;;
13339;SDS011;6739;47.398;8.774;2022-07-10T05:52:27;3.10;;;2.37;;
13339;SDS011;6739;47.398;8.774;2022-07-10T05:54:55;2.60;;;2.10;;
13339;SDS011;6739;47.398;8.774;2022-07-10T05:57:23;2.20;;;2.00;;
13339;SDS011;6739;47.398;8.774;2022-07-10T05:59:50;2.93;;;2.20;;
13339;SDS011;6739;47.398;8.774;2022-07-10T06:02:18;2.47;;;2.00;;
13339;SDS011;6739;47.398;8.774;2022-07-10T06:04:46;2.43;;;2.10;;
13339;SDS011;6739;47.398;8.774;2022-07-10T06:07:14;2.80;;;1.97;;
13339;SDS011;6739;47.398;8.774;2022-07-10T06:09:43;2.53;;;2.00;;
13339;SDS011;6739;47.398;8.774;2022-07-10T06:12:11;2.40;;;1.90;;
13339;SDS011;6739;47.398;8.774;2022-07-10T06:14:38;3.13;;;2.27;;
13339;SDS011;6739;47.398;8.774;2022-07-10T06:17:06;2.50;;;2.10;;
13339;SDS011;6739;47.398;8.774;2022-07-10T06:19:33;2.97;;;1.90;;
13339;SDS011;6739;47.398;8.774;2022-07-10T06:22:01;2.97;;;2.00;;
13339;SDS011;6739;47.398;8.774;2022-07-10T06:24:47;2.27;;;2.10;;
13339;SDS011;6739;47.398;8.774;2022-07-10T06:27:15;2.03;;;1.93;;
13339;SDS011;6739;47.398;8.774;2022-07-10T06:29:42;2.40;;;2.20;;
13339;SDS011;6739;47.398;8.774;2022-07-10T06:32:10;2.40;;;2.13;;
13339;SDS011;6739;47.398;8.774;2022-07-10T06:34:37;2.23;;;2.10;;
13339;SDS011;6739;47.398;8.774;2022-07-10T06:37:05;1.80;;;1.70;;
13339;SDS011;6739;47.398;8.774;2022-07-10T06:39:33;2.80;;;2.17;;
13339;SDS011;6739;47.398;8.774;2022-07-10T06:42:02;2.47;;;2.27;;
13339;SDS011;6739;47.398;8.774;2022-07-10T06:44:30;2.57;;;1.87;;
13339;SDS011;6739;47.398;8.774;2022-07-10T06:46:57;3.53;;;2.00;;
13339;SDS011;6739;47.398;8.774;2022-07-10T06:49:43;2.20;;;2.00;;
13339;SDS011;6739;47.398;8.774;2022-07-10T06:52:11;2.20;;;2.07;;
13339;SDS011;6739;47.398;8.774;2022-07-10T06:54:39;2.73;;;2.10;;
13339;SDS011;6739;47.398;8.774;2022-07-10T06:57:08;2.50;;;2.13;;
13339;SDS011;6739;47.398;8.774;2022-07-10T06:59:36;2.23;;;2.10;;
13339;SDS011;6739;47.398;8.774;2022-07-10T07:02:03;4.23;;;2.70;;
13339;SDS011;6739;47.398;8.774;2022-07-10T07:04:31;4.07;;;2.30;;
13339;SDS011;6739;47.398;8.774;2022-07-10T07:06:58;2.63;;;2.00;;
13339;SDS011;6739;47.398;8.774;2022-07-10T07:09:26;2.47;;;2.10;;
13339;SDS011;6739;47.398;8.774;2022-07-10T07:11:53;2.33;;;2.23;;
13339;SDS011;6739;47.398;8.774;2022-07-10T07:14:22;1.90;;;1.80;;
13339;SDS011;6739;47.398;8.774;2022-07-10T07:16:50;2.07;;;1.87;;
13339;SDS011;6739;47.398;8.774;2022-07-10T07:19:26;2.07;;;1.80;;
13339;SDS011;6739;47.398;8.774;2022-07-10T07:21:57;2.93;;;2.03;;
13339;SDS011;6739;47.398;8.774;2022-07-10T07:24:48;2.13;;;2.00;;
13339;SDS011;6739;47.398;8.774;2022-07-10T07:27:15;3.00;;;2.10;;
13339;SDS011;6739;47.398;8.774;2022-07-10T07:29:44;2.23;;;1.93;;
13339;SDS011;6739;47.398;8.774;2022-07-10T07:32:12;2.20;;;2.00;;
13339;SDS011;6739;47.398;8.774;2022-07-10T07:34:39;2.13;;;2.00;;
13339;SDS011;6739;47.398;8.774;2022-07-10T07:37:07;2.13;;;1.90;;
13339;SDS011;6739;47.398;8.774;2022-07-10T07:39:34;2.53;;;2.33;;
13339;SDS011;6739;47.398;8.774;2022-07-10T07:42:03;2.13;;;1.93;;
13339;SDS011;6739;47.398;8.774;2022-07-10T07:44:31;2.13;;;1.93;;
13339;SDS011;6739;47.398;8.774;2022-07-10T07:46:59;1.90;;;1.80;;
13339;SDS011;6739;47.398;8.774;2022-07-10T07:49:27;2.00;;;1.80;;
13339;SDS011;6739;47.398;8.774;2022-07-10T07:51:54;2.33;;;2.13;;
13339;SDS011;6739;47.398;8.774;2022-07-10T07:54:22;1.90;;;1.80;;
13339;SDS011;6739;47.398;8.774;2022-07-10T07:56:49;2.10;;;2.00;;
13339;SDS011;6739;47.398;8.774;2022-07-10T07:59:17;1.80;;;1.70;;
13339;SDS011;6739;47.398;8.774;2022-07-10T08:01:44;2.97;;;2.40;;
13339;SDS011;6739;47.398;8.774;2022-07-10T08:04:13;2.13;;;1.93;;
13339;SDS011;6739;47.398;8.774;2022-07-10T08:06:41;1.93;;;1.83;;
13339;SDS011;6739;47.398;8.774;2022-07-10T08:09:08;2.10;;;2.00;;
13339;SDS011;6739;47.398;8.774;2022-07-10T08:11:36;3.80;;;2.43;;
13339;SDS011;6739;47.398;8.774;2022-07-10T08:14:03;2.07;;;1.87;;
13339;SDS011;6739;47.398;8.774;2022-07-10T08:16:31;2.20;;;1.90;;
13339;SDS011;6739;47.398;8.774;2022-07-10T08:18:58;2.40;;;2.20;;
13339;SDS011;6739;47.398;8.774;2022-07-10T08:21:27;2.43;;;2.10;;
13339;SDS011;6739;47.398;8.774;2022-07-10T08:23:55;2.33;;;2.00;;
13339;SDS011;6739;47.398;8.774;2022-07-10T08:26:23;2.40;;;2.20;;
13339;SDS011;6739;47.398;8.774;2022-07-10T08:28:50;2.60;;;2.10;;
13339;SDS011;6739;47.398;8.774;2022-07-10T08:31:18;2.63;;;2.00;;
13339;SDS011;6739;47.398;8.774;2022-07-10T08:33:45;2.57;;;2.27;;
13339;SDS011;6739;47.398;8.774;2022-07-10T08:36:13;3.30;;;2.50;;
13339;SDS011;6739;47.398;8.774;2022-07-10T08:38:42;2.23;;;2.10;;
13339;SDS011;6739;47.398;8.774;2022-07-10T08:41:09;2.47;;;2.27;;
13339;SDS011;6739;47.398;8.774;2022-07-10T08:43:37;2.57;;;2.37;;
13339;SDS011;6739;47.398;8.774;2022-07-10T08:46:05;2.20;;;2.00;;
13339;SDS011;6739;47.398;8.774;2022-07-10T08:48:33;1.93;;;1.83;;
13339;SDS011;6739;47.398;8.774;2022-07-10T08:51:03;2.17;;;2.07;;
13339;SDS011;6739;47.398;8.774;2022-07-10T08:53:32;2.43;;;2.23;;
13339;SDS011;6739;47.398;8.774;2022-07-10T08:56:00;2.00;;;1.90;;
13339;SDS011;6739;47.398;8.774;2022-07-10T08:58:28;2.73;;;2.20;;
13339;SDS011;6739;47.398;8.774;2022-07-10T09:00:56;2.50;;;2.30;;
13339;SDS011;6739;47.398;8.774;2022-07-10T09:03:24;2.00;;;1.90;;
13339;SDS011;6739;47.398;8.774;2022-07-10T09:05:51;2.10;;;2.00;;
13339;SDS011;6739;47.398;8.774;2022-07-10T09:08:21;1.90;;;1.80;;
13339;SDS011;6739;47.398;8.774;2022-07-10T09:10:48;3.28;;;2.30;;
13339;SDS011;6739;47.398;8.774;2022-07-10T09:13:18;2.28;;;2.17;;
13339;SDS011;6739;47.398;8.774;2022-07-10T09:15:49;2.10;;;2.00;;
13339;SDS011;6739;47.398;8.774;2022-07-10T09:18:21;2.50;;;2.30;;
13339;SDS011;6739;47.398;8.774;2022-07-10T09:20:51;2.23;;;2.00;;
13339;SDS011;6739;47.398;8.774;2022-07-10T09:23:19;2.10;;;2.00;;
13339;SDS011;6739;47.398;8.774;2022-07-10T09:25:47;2.20;;;2.10;;
13339;SDS011;6739;47.398;8.774;2022-07-10T09:28:16;2.10;;;1.95;;
13339;SDS011;6739;47.398;8.774;2022-07-10T09:30:45;2.03;;;1.92;;
13339;SDS011;6739;47.398;8.774;2022-07-10T09:33:16;2.40;;;2.20;;
13339;SDS011;6739;47.398;8.774;2022-07-10T09:35:54;3.10;;;2.70;;
13339;SDS011;6739;47.398;8.774;2022-07-10T09:41:14;2.30;;;2.20;;
13339;SDS011;6739;47.398;8.774;2022-07-10T09:43:45;2.55;;;2.03;;
13339;SDS011;6739;47.398;8.774;2022-07-10T09:46:14;1.95;;;1.85;;
13339;SDS011;6739;47.398;8.774;2022-07-10T09:48:41;2.03;;;1.90;;
13339;SDS011;6739;47.398;8.774;2022-07-10T09:51:10;1.90;;;1.80;;
13339;SDS011;6739;47.398;8.774;2022-07-10T09:53:38;2.08;;;1.98;;
13339;SDS011;6739;47.398;8.774;2022-07-10T09:56:06;1.70;;;1.60;;
13339;SDS011;6739;47.398;8.774;2022-07-10T09:58:35;1.92;;;1.83;;
13339;SDS011;6739;47.398;8.774;2022-07-10T10:01:03;1.90;;;1.80;;
13339;SDS011;6739;47.398;8.774;2022-07-10T10:03:34;2.00;;;1.90;;
13339;SDS011;6739;47.398;8.774;2022-07-10T10:06:03;1.92;;;1.83;;
13339;SDS011;6739;47.398;8.774;2022-07-10T10:08:31;1.95;;;1.67;;
13339;SDS011;6739;47.398;8.774;2022-07-10T10:10:59;1.90;;;1.80;;
13339;SDS011;6739;47.398;8.774;2022-07-10T10:13:28;3.13;;;1.83;;
13339;SDS011;6739;47.398;8.774;2022-07-10T10:15:56;1.85;;;1.75;;
13339;SDS011;6739;47.398;8.774;2022-07-10T10:18:24;1.75;;;1.63;;
13339;SDS011;6739;47.398;8.774;2022-07-10T10:20:53;1.80;;;1.70;;
13339;SDS011;6739;47.398;8.774;2022-07-10T10:23:20;2.85;;;1.90;;
13339;SDS011;6739;47.398;8.774;2022-07-10T10:25:49;2.15;;;1.77;;
13339;SDS011;6739;47.398;8.774;2022-07-10T10:28:16;1.98;;;1.80;;
13339;SDS011;6739;47.398;8.774;2022-07-10T10:30:49;2.08;;;1.88;;
13339;SDS011;6739;47.398;8.774;2022-07-10T10:33:40;2.17;;;1.63;;
13339;SDS011;6739;47.398;8.774;2022-07-10T10:36:12;2.25;;;1.70;;
13339;SDS011;6739;47.398;8.774;2022-07-10T10:41:26;1.73;;;1.63;;
13339;SDS011;6739;47.398;8.774;2022-07-10T10:46:52;1.65;;;1.55;;
13339;SDS011;6739;47.398;8.774;2022-07-10T10:49:23;1.70;;;1.60;;
13339;SDS011;6739;47.398;8.774;2022-07-10T10:51:58;1.80;;;1.70;;
13339;SDS011;6739;47.398;8.774;2022-07-10T10:54:27;1.60;;;1.50;;
13339;SDS011;6739;47.398;8.774;2022-07-10T10:57:10;1.80;;;1.70;;
13339;SDS011;6739;47.398;8.774;2022-07-10T10:59:44;4.22;;;1.45;;
13339;SDS011;6739;47.398;8.774;2022-07-10T11:02:21;2.42;;;1.77;;
13339;SDS011;6739;47.398;8.774;2022-07-10T11:04:49;1.42;;;1.33;;
13339;SDS011;6739;47.398;8.774;2022-07-10T11:15:25;1.60;;;1.50;;
13339;SDS011;6739;47.398;8.774;2022-07-10T11:17:55;1.70;;;1.60;;
13339;SDS011;6739;47.398;8.774;2022-07-10T11:20:23;3.08;;;1.90;;
13339;SDS011;6739;47.398;8.774;2022-07-10T11:22:52;1.60;;;1.50;;
13339;SDS011;6739;47.398;8.774;2022-07-10T11:25:38;2.10;;;1.90;;
13339;SDS011;6739;47.398;8.774;2022-07-10T11:28:09;2.92;;;1.80;;
13339;SDS011;6739;47.398;8.774;2022-07-10T11:30:49;1.63;;;1.52;;
13339;SDS011;6739;47.398;8.774;2022-07-10T11:33:17;1.75;;;1.65;;
13339;SDS011;6739;47.398;8.774;2022-07-10T11:35:46;2.77;;;1.77;;
13339;SDS011;6739;47.398;8.774;2022-07-10T11:38:18;1.90;;;1.70;;
13339;SDS011;6739;47.398;8.774;2022-07-10T11:40:46;2.67;;;1.80;;
13339;SDS011;6739;47.398;8.774;2022-07-10T11:43:13;1.80;;;1.53;;
13339;SDS011;6739;47.398;8.774;2022-07-10T11:45:42;2.10;;;1.90;;
13339;SDS011;6739;47.398;8.774;2022-07-10T11:48:18;2.83;;;1.80;;
13339;SDS011;6739;47.398;8.774;2022-07-10T11:50:45;2.23;;;2.03;;
13339;SDS011;6739;47.398;8.774;2022-07-10T11:53:13;2.20;;;2.00;;
13339;SDS011;6739;47.398;8.774;2022-07-10T11:55:41;4.30;;;1.80;;
13339;SDS011;6739;47.398;8.774;2022-07-10T11:58:14;1.67;;;1.57;;
13339;SDS011;6739;47.398;8.774;2022-07-10T12:00:42;1.73;;;1.63;;
13339;SDS011;6739;47.398;8.774;2022-07-10T12:03:18;1.70;;;1.57;;
13339;SDS011;6739;47.398;8.774;2022-07-10T12:05:46;1.83;;;1.70;;
13339;SDS011;6739;47.398;8.774;2022-07-10T12:08:16;3.10;;;2.80;;
13339;SDS011;6739;47.398;8.774;2022-07-10T12:10:44;2.57;;;1.80;;
13339;SDS011;6739;47.398;8.774;2022-07-10T12:13:12;4.83;;;2.00;;
13339;SDS011;6739;47.398;8.774;2022-07-10T12:15:40;1.70;;;1.60;;
13339;SDS011;6739;47.398;8.774;2022-07-10T12:18:09;1.83;;;1.40;;
13339;SDS011;6739;47.398;8.774;2022-07-10T12:20:39;1.83;;;1.73;;
13339;SDS011;6739;47.398;8.774;2022-07-10T12:23:10;1.77;;;1.50;;
13339;SDS011;6739;47.398;8.774;2022-07-10T12:25:41;1.63;;;1.53;;
13339;SDS011;6739;47.398;8.774;2022-07-10T12:28:08;1.57;;;1.47;;
13339;SDS011;6739;47.398;8.774;2022-07-10T12:30:40;1.70;;;1.60;;
13339;SDS011;6739;47.398;8.774;2022-07-10T12:33:08;2.40;;;1.80;;
13339;SDS011;6739;47.398;8.774;2022-07-10T12:35:53;1.50;;;1.40;;
13339;SDS011;6739;47.398;8.774;2022-07-10T12:38:21;1.60;;;1.50;;
13339;SDS011;6739;47.398;8.774;2022-07-10T12:40:49;1.53;;;1.43;;
13339;SDS011;6739;47.398;8.774;2022-07-10T12:43:23;1.57;;;1.47;;
13339;SDS011;6739;47.398;8.774;2022-07-10T12:48:34;1.50;;;1.40;;
13339;SDS011;6739;47.398;8.774;2022-07-10T12:53:46;4.73;;;1.60;;
13339;SDS011;6739;47.398;8.774;2022-07-10T12:56:25;1.67;;;1.57;;
13339;SDS011;6739;47.398;8.774;2022-07-10T12:58:53;1.60;;;1.47;;
13339;SDS011;6739;47.398;8.774;2022-07-10T13:01:20;1.70;;;1.60;;
13339;SDS011;6739;47.398;8.774;2022-07-10T13:03:48;1.57;;;1.47;;
13339;SDS011;6739;47.398;8.774;2022-07-10T13:06:25;1.77;;;1.60;;
13339;SDS011;6739;47.398;8.774;2022-07-10T13:08:54;2.10;;;1.50;;
13339;SDS011;6739;47.398;8.774;2022-07-10T13:11:22;1.50;;;1.40;;
13339;SDS011;6739;47.398;8.774;2022-07-10T13:13:50;1.60;;;1.40;;
13339;SDS011;6739;47.398;8.774;2022-07-10T13:16:17;1.53;;;1.43;;
13339;SDS011;6739;47.398;8.774;2022-07-10T13:18:45;1.57;;;1.47;;
13339;SDS011;6739;47.398;8.774;2022-07-10T13:21:12;1.50;;;1.40;;
13339;SDS011;6739;47.398;8.774;2022-07-10T13:23:40;1.80;;;1.70;;
13339;SDS011;6739;47.398;8.774;2022-07-10T13:26:09;2.30;;;2.20;;
13339;SDS011;6739;47.398;8.774;2022-07-10T13:28:36;1.70;;;1.60;;
13339;SDS011;6739;47.398;8.774;2022-07-10T13:31:04;2.43;;;1.50;;
13339;SDS011;6739;47.398;8.774;2022-07-10T13:33:33;1.53;;;1.43;;
13339;SDS011;6739;47.398;8.774;2022-07-10T13:36:01;1.57;;;1.40;;
13339;SDS011;6739;47.398;8.774;2022-07-10T13:38:29;2.50;;;1.40;;
13339;SDS011;6739;47.398;8.774;2022-07-10T13:40:57;1.83;;;1.73;;
13339;SDS011;6739;47.398;8.774;2022-07-10T13:43:26;1.53;;;1.43;;
13339;SDS011;6739;47.398;8.774;2022-07-10T13:45:56;1.40;;;1.30;;
13339;SDS011;6739;47.398;8.774;2022-07-10T13:48:24;2.03;;;1.50;;
13339;SDS011;6739;47.398;8.774;2022-07-10T13:50:52;1.60;;;1.50;;
13339;SDS011;6739;47.398;8.774;2022-07-10T13:53:20;2.03;;;1.80;;
13339;SDS011;6739;47.398;8.774;2022-07-10T13:55:47;1.50;;;1.40;;
13339;SDS011;6739;47.398;8.774;2022-07-10T13:58:15;1.60;;;1.50;;
13339;SDS011;6739;47.398;8.774;2022-07-10T14:00:44;2.40;;;2.20;;
13339;SDS011;6739;47.398;8.774;2022-07-10T14:03:12;1.63;;;1.53;;
13339;SDS011;6739;47.398;8.774;2022-07-10T14:05:40;1.80;;;1.70;;
13339;SDS011;6739;47.398;8.774;2022-07-10T14:08:07;1.20;;;1.20;;
13339;SDS011;6739;47.398;8.774;2022-07-10T14:10:35;1.60;;;1.50;;
13339;SDS011;6739;47.398;8.774;2022-07-10T14:13:05;1.50;;;1.40;;
13339;SDS011;6739;47.398;8.774;2022-07-10T14:15:38;1.50;;;1.40;;
13339;SDS011;6739;47.398;8.774;2022-07-10T14:18:15;1.50;;;1.40;;
13339;SDS011;6739;47.398;8.774;2022-07-10T14:21:00;2.80;;;1.70;;
13339;SDS011;6739;47.398;8.774;2022-07-10T14:23:33;1.50;;;1.40;;
13339;SDS011;6739;47.398;8.774;2022-07-10T14:26:09;1.50;;;1.40;;
13339;SDS011;6739;47.398;8.774;2022-07-10T14:28:37;1.70;;;1.60;;
13339;SDS011;6739;47.398;8.774;2022-07-10T14:31:09;3.17;;;1.60;;
13339;SDS011;6739;47.398;8.774;2022-07-10T14:33:45;1.80;;;1.70;;
13339;SDS011;6739;47.398;8.774;2022-07-10T14:36:13;1.70;;;1.60;;
13339;SDS011;6739;47.398;8.774;2022-07-10T14:38:41;2.10;;;2.00;;
13339;SDS011;6739;47.398;8.774;2022-07-10T14:41:12;1.90;;;1.80;;
13339;SDS011;6739;47.398;8.774;2022-07-10T14:43:42;1.70;;;1.60;;
13339;SDS011;6739;47.398;8.774;2022-07-10T14:46:12;1.63;;;1.53;;
13339;SDS011;6739;47.398;8.774;2022-07-10T14:48:41;2.30;;;1.57;;
13339;SDS011;6739;47.398;8.774;2022-07-10T14:51:11;2.20;;;1.50;;
13339;SDS011;6739;47.398;8.774;2022-07-10T14:53:40;1.50;;;1.40;;
13339;SDS011;6739;47.398;8.774;2022-07-10T14:56:09;1.70;;;1.60;;
13339;SDS011;6739;47.398;8.774;2022-07-10T14:58:41;1.50;;;1.40;;
13339;SDS011;6739;47.398;8.774;2022-07-10T15:01:09;1.40;;;1.30;;
13339;SDS011;6739;47.398;8.774;2022-07-10T15:03:37;1.57;;;1.47;;
13339;SDS011;6739;47.398;8.774;2022-07-10T15:06:06;1.70;;;1.60;;
13339;SDS011;6739;47.398;8.774;2022-07-10T15:08:34;2.07;;;1.60;;
13339;SDS011;6739;47.398;8.774;2022-07-10T15:11:02;3.37;;;1.73;;
13339;SDS011;6739;47.398;8.774;2022-07-10T15:13:30;3.10;;;1.57;;
13339;SDS011;6739;47.398;8.774;2022-07-10T15:15:58;2.10;;;1.70;;
13339;SDS011;6739;47.398;8.774;2022-07-10T15:18:26;2.17;;;1.67;;
13339;SDS011;6739;47.398;8.774;2022-07-10T15:21:10;1.70;;;1.60;;
13339;SDS011;6739;47.398;8.774;2022-07-10T15:23:48;2.00;;;1.90;;
13339;SDS011;6739;47.398;8.774;2022-07-10T15:26:17;2.53;;;1.87;;
13339;SDS011;6739;47.398;8.774;2022-07-10T15:28:45;2.67;;;2.00;;
13339;SDS011;6739;47.398;8.774;2022-07-10T15:31:13;2.07;;;1.80;;
13339;SDS011;6739;47.398;8.774;2022-07-10T15:33:44;1.70;;;1.60;;
13339;SDS011;6739;47.398;8.774;2022-07-10T15:36:13;1.63;;;1.53;;